sensor_id;sensor_type;location;lat;lon;timestamp;P1;durP1;ratioP1;P2;durP2;ratioP2
21099;SDS011;10708;50.824;4.408;2023-02-15T00:01:11;171.10;;;157.60;;
21099;SDS011;10708;50.824;4.408;2023-02-15T00:06:15;156.15;;;143.57;;
21099;SDS011;10708;50.824;4.408;2023-02-15T00:11:18;147.93;;;135.90;;
21099;SDS011;10708;50.824;4.408;2023-02-15T00:16:40;170.27;;;157.07;;
21099;SDS011;10708;50.824;4.408;2023-02-15T00:21:46;195.15;;;180.60;;
21099;SDS011;10708;50.824;4.408;2023-02-15T00:26:49;166.57;;;153.80;;
21099;SDS011;10708;50.824;4.408;2023-02-15T00:31:52;126.73;;;116.03;;
21099;SDS011;10708;50.824;4.408;2023-02-15T00:36:55;146.50;;;134.60;;
21099;SDS011;10708;50.824;4.408;2023-02-15T00:41:58;182.55;;;168.20;;
21099;SDS011;10708;50.824;4.408;2023-02-15T00:47:00;175.30;;;161.65;;
21099;SDS011;10708;50.824;4.408;2023-02-15T00:52:04;176.43;;;163.00;;
21099;SDS011;10708;50.824;4.408;2023-02-15T00:57:06;84.68;;;76.20;;
21099;SDS011;10708;50.824;4.408;2023-02-15T01:02:08;183.07;;;169.02;;
21099;SDS011;10708;50.824;4.408;2023-02-15T01:07:12;109.03;;;99.23;;
21099;SDS011;10708;50.824;4.408;2023-02-15T01:12:14;142.27;;;130.60;;
21099;SDS011;10708;50.824;4.408;2023-02-15T01:17:17;90.82;;;81.47;;
21099;SDS011;10708;50.824;4.408;2023-02-15T01:22:20;89.80;;;80.78;;
21099;SDS011;10708;50.824;4.408;2023-02-15T01:27:28;129.73;;;119.15;;
21099;SDS011;10708;50.824;4.408;2023-02-15T01:32:33;179.95;;;166.20;;
21099;SDS011;10708;50.824;4.408;2023-02-15T01:37:37;201.63;;;186.48;;
21099;SDS011;10708;50.824;4.408;2023-02-15T01:42:40;201.43;;;186.70;;
21099;SDS011;10708;50.824;4.408;2023-02-15T01:47:42;208.00;;;192.93;;
21099;SDS011;10708;50.824;4.408;2023-02-15T01:52:49;241.27;;;224.40;;
21099;SDS011;10708;50.824;4.408;2023-02-15T01:57:57;169.82;;;156.60;;
21099;SDS011;10708;50.824;4.408;2023-02-15T02:03:00;311.50;;;291.52;;
21099;SDS011;10708;50.824;4.408;2023-02-15T02:08:06;286.33;;;267.13;;
21099;SDS011;10708;50.824;4.408;2023-02-15T02:13:10;230.63;;;214.27;;
21099;SDS011;10708;50.824;4.408;2023-02-15T02:18:15;86.13;;;77.27;;
21099;SDS011;10708;50.824;4.408;2023-02-15T02:23:38;91.82;;;82.70;;
21099;SDS011;10708;50.824;4.408;2023-02-15T02:29:01;144.70;;;133.18;;
21099;SDS011;10708;50.824;4.408;2023-02-15T02:34:30;113.13;;;103.25;;
21099;SDS011;10708;50.824;4.408;2023-02-15T02:39:37;400.10;;;374.17;;
21099;SDS011;10708;50.824;4.408;2023-02-15T02:44:49;388.30;;;363.40;;
21099;SDS011;10708;50.824;4.408;2023-02-15T02:49:59;568.60;;;529.80;;
21099;SDS011;10708;50.824;4.408;2023-02-15T02:55:03;462.97;;;432.60;;
21099;SDS011;10708;50.824;4.408;2023-02-15T03:00:09;566.92;;;528.00;;
21099;SDS011;10708;50.824;4.408;2023-02-15T03:05:15;715.15;;;662.78;;
21099;SDS011;10708;50.824;4.408;2023-02-15T03:10:22;843.58;;;778.72;;
21099;SDS011;10708;50.824;4.408;2023-02-15T03:15:26;885.55;;;815.90;;
21099;SDS011;10708;50.824;4.408;2023-02-15T03:20:58;906.75;;;834.65;;
21099;SDS011;10708;50.824;4.408;2023-02-15T03:26:05;926.20;;;851.43;;
21099;SDS011;10708;50.824;4.408;2023-02-15T03:31:12;618.60;;;574.60;;
21099;SDS011;10708;50.824;4.408;2023-02-15T03:36:20;698.88;;;647.33;;
21099;SDS011;10708;50.824;4.408;2023-02-15T03:41:29;774.60;;;715.90;;
21099;SDS011;10708;50.824;4.408;2023-02-15T03:46:37;149.50;;;137.27;;
21099;SDS011;10708;50.824;4.408;2023-02-15T03:51:47;121.67;;;111.10;;
21099;SDS011;10708;50.824;4.408;2023-02-15T03:56:52;74.53;;;60.78;;
21099;SDS011;10708;50.824;4.408;2023-02-15T04:02:11;62.60;;;49.67;;
21099;SDS011;10708;50.824;4.408;2023-02-15T04:07:23;64.90;;;55.53;;
21099;SDS011;10708;50.824;4.408;2023-02-15T04:12:25;66.43;;;52.92;;
21099;SDS011;10708;50.824;4.408;2023-02-15T04:17:28;232.23;;;216.25;;
21099;SDS011;10708;50.824;4.408;2023-02-15T04:22:32;287.08;;;268.08;;
21099;SDS011;10708;50.824;4.408;2023-02-15T04:27:53;183.02;;;169.27;;
21099;SDS011;10708;50.824;4.408;2023-02-15T04:32:56;245.95;;;228.85;;
21099;SDS011;10708;50.824;4.408;2023-02-15T04:37:59;144.65;;;133.02;;
21099;SDS011;10708;50.824;4.408;2023-02-15T04:43:01;172.60;;;159.32;;
21099;SDS011;10708;50.824;4.408;2023-02-15T04:48:04;159.57;;;147.37;;
21099;SDS011;10708;50.824;4.408;2023-02-15T04:53:08;147.65;;;135.98;;
21099;SDS011;10708;50.824;4.408;2023-02-15T04:58:10;136.10;;;125.03;;
21099;SDS011;10708;50.824;4.408;2023-02-15T05:03:13;152.13;;;140.13;;
21099;SDS011;10708;50.824;4.408;2023-02-15T05:08:16;137.85;;;126.60;;
21099;SDS011;10708;50.824;4.408;2023-02-15T05:13:19;184.43;;;170.63;;
21099;SDS011;10708;50.824;4.408;2023-02-15T05:18:21;133.05;;;122.30;;
21099;SDS011;10708;50.824;4.408;2023-02-15T05:23:25;142.27;;;130.93;;
21099;SDS011;10708;50.824;4.408;2023-02-15T05:28:28;185.47;;;171.83;;
21099;SDS011;10708;50.824;4.408;2023-02-15T05:33:30;147.43;;;135.73;;
21099;SDS011;10708;50.824;4.408;2023-02-15T05:38:34;208.13;;;193.10;;
21099;SDS011;10708;50.824;4.408;2023-02-15T05:43:37;152.67;;;141.07;;
21099;SDS011;10708;50.824;4.408;2023-02-15T05:48:40;164.88;;;152.32;;
21099;SDS011;10708;50.824;4.408;2023-02-15T05:53:43;166.97;;;154.30;;
21099;SDS011;10708;50.824;4.408;2023-02-15T05:58:46;116.77;;;106.97;;
21099;SDS011;10708;50.824;4.408;2023-02-15T06:03:50;104.03;;;94.53;;
21099;SDS011;10708;50.824;4.408;2023-02-15T06:08:57;90.78;;;82.32;;
21099;SDS011;10708;50.824;4.408;2023-02-15T06:14:00;91.63;;;82.70;;
21099;SDS011;10708;50.824;4.408;2023-02-15T06:19:02;80.10;;;71.88;;
21099;SDS011;10708;50.824;4.408;2023-02-15T06:24:07;82.75;;;74.43;;
21099;SDS011;10708;50.824;4.408;2023-02-15T06:29:10;76.13;;;68.00;;
21099;SDS011;10708;50.824;4.408;2023-02-15T06:34:12;104.30;;;94.78;;
21099;SDS011;10708;50.824;4.408;2023-02-15T06:39:16;76.13;;;68.00;;
21099;SDS011;10708;50.824;4.408;2023-02-15T06:44:18;69.50;;;52.38;;
21099;SDS011;10708;50.824;4.408;2023-02-15T06:49:21;123.93;;;113.60;;
21099;SDS011;10708;50.824;4.408;2023-02-15T06:54:25;89.53;;;81.07;;
21099;SDS011;10708;50.824;4.408;2023-02-15T06:59:32;81.10;;;72.60;;
21099;SDS011;10708;50.824;4.408;2023-02-15T07:04:35;169.60;;;156.40;;
21099;SDS011;10708;50.824;4.408;2023-02-15T07:09:39;108.03;;;98.45;;
21099;SDS011;10708;50.824;4.408;2023-02-15T07:14:41;96.75;;;87.57;;
21099;SDS011;10708;50.824;4.408;2023-02-15T07:19:44;181.52;;;168.00;;
21099;SDS011;10708;50.824;4.408;2023-02-15T07:24:48;160.82;;;148.02;;
21099;SDS011;10708;50.824;4.408;2023-02-15T07:29:50;240.25;;;223.93;;
21099;SDS011;10708;50.824;4.408;2023-02-15T07:34:53;413.53;;;386.63;;
21099;SDS011;10708;50.824;4.408;2023-02-15T07:39:56;446.55;;;417.67;;
21099;SDS011;10708;50.824;4.408;2023-02-15T07:44:59;490.25;;;458.33;;
21099;SDS011;10708;50.824;4.408;2023-02-15T07:50:01;216.10;;;200.90;;
21099;SDS011;10708;50.824;4.408;2023-02-15T07:55:05;118.47;;;108.67;;
21099;SDS011;10708;50.824;4.408;2023-02-15T08:00:09;303.02;;;283.35;;
21099;SDS011;10708;50.824;4.408;2023-02-15T08:05:13;323.60;;;303.27;;
21099;SDS011;10708;50.824;4.408;2023-02-15T08:10:18;388.17;;;364.23;;
21099;SDS011;10708;50.824;4.408;2023-02-15T08:15:47;502.25;;;470.52;;
21099;SDS011;10708;50.824;4.408;2023-02-15T08:20:49;430.05;;;402.98;;
21099;SDS011;10708;50.824;4.408;2023-02-15T08:25:53;405.08;;;380.02;;
21099;SDS011;10708;50.824;4.408;2023-02-15T08:30:55;387.20;;;363.42;;
21099;SDS011;10708;50.824;4.408;2023-02-15T08:36:05;392.90;;;368.58;;
21099;SDS011;10708;50.824;4.408;2023-02-15T08:41:12;299.10;;;281.30;;
21099;SDS011;10708;50.824;4.408;2023-02-15T08:46:16;298.40;;;280.37;;
21099;SDS011;10708;50.824;4.408;2023-02-15T08:51:20;192.43;;;180.18;;
21099;SDS011;10708;50.824;4.408;2023-02-15T08:56:26;182.77;;;170.90;;
21099;SDS011;10708;50.824;4.408;2023-02-15T09:01:30;101.60;;;93.70;;
21099;SDS011;10708;50.824;4.408;2023-02-15T09:06:34;65.45;;;59.42;;
21099;SDS011;10708;50.824;4.408;2023-02-15T09:11:39;75.13;;;68.18;;
21099;SDS011;10708;50.824;4.408;2023-02-15T09:16:43;165.13;;;154.10;;
21099;SDS011;10708;50.824;4.408;2023-02-15T09:21:49;186.10;;;174.23;;
21099;SDS011;10708;50.824;4.408;2023-02-15T09:26:53;129.32;;;119.88;;
21099;SDS011;10708;50.824;4.408;2023-02-15T09:31:55;138.30;;;128.47;;
21099;SDS011;10708;50.824;4.408;2023-02-15T09:36:58;95.67;;;87.80;;
21099;SDS011;10708;50.824;4.408;2023-02-15T09:42:13;83.55;;;76.95;;
21099;SDS011;10708;50.824;4.408;2023-02-15T09:47:33;96.30;;;88.53;;
21099;SDS011;10708;50.824;4.408;2023-02-15T09:52:53;113.22;;;104.90;;
21099;SDS011;10708;50.824;4.408;2023-02-15T09:58:10;139.75;;;129.82;;
21099;SDS011;10708;50.824;4.408;2023-02-15T10:03:25;151.50;;;141.40;;
21099;SDS011;10708;50.824;4.408;2023-02-15T10:08:53;199.40;;;186.47;;
21099;SDS011;10708;50.824;4.408;2023-02-15T10:14:18;147.50;;;137.25;;
21099;SDS011;10708;50.824;4.408;2023-02-15T10:19:39;213.15;;;199.23;;
21099;SDS011;10708;50.824;4.408;2023-02-15T10:24:57;181.00;;;168.60;;
21099;SDS011;10708;50.824;4.408;2023-02-15T10:30:17;275.43;;;258.43;;
21099;SDS011;10708;50.824;4.408;2023-02-15T10:35:30;280.65;;;262.73;;
21099;SDS011;10708;50.824;4.408;2023-02-15T10:40:46;240.35;;;225.63;;
21099;SDS011;10708;50.824;4.408;2023-02-15T10:46:03;241.37;;;226.37;;
21099;SDS011;10708;50.824;4.408;2023-02-15T10:51:14;269.73;;;253.13;;
21099;SDS011;10708;50.824;4.408;2023-02-15T10:56:23;272.58;;;256.08;;
21099;SDS011;10708;50.824;4.408;2023-02-15T11:01:35;262.45;;;246.45;;
21099;SDS011;10708;50.824;4.408;2023-02-15T11:06:43;231.35;;;216.88;;
21099;SDS011;10708;50.824;4.408;2023-02-15T11:11:52;160.75;;;149.82;;
21099;SDS011;10708;50.824;4.408;2023-02-15T11:17:02;146.73;;;136.07;;
21099;SDS011;10708;50.824;4.408;2023-02-15T11:22:09;150.38;;;140.00;;
21099;SDS011;10708;50.824;4.408;2023-02-15T11:27:16;127.07;;;117.97;;
21099;SDS011;10708;50.824;4.408;2023-02-15T11:32:23;91.65;;;84.18;;
21099;SDS011;10708;50.824;4.408;2023-02-15T11:37:29;221.25;;;206.60;;
21099;SDS011;10708;50.824;4.408;2023-02-15T11:42:37;273.80;;;257.40;;
21099;SDS011;10708;50.824;4.408;2023-02-15T11:47:42;311.27;;;292.07;;
21099;SDS011;10708;50.824;4.408;2023-02-15T11:52:45;306.87;;;288.27;;
21099;SDS011;10708;50.824;4.408;2023-02-15T11:57:48;273.73;;;256.50;;
21099;SDS011;10708;50.824;4.408;2023-02-15T12:02:57;247.27;;;231.47;;
21099;SDS011;10708;50.824;4.408;2023-02-15T12:08:01;152.95;;;141.70;;
21099;SDS011;10708;50.824;4.408;2023-02-15T12:13:10;137.93;;;127.72;;
21099;SDS011;10708;50.824;4.408;2023-02-15T12:18:20;156.30;;;144.63;;
21099;SDS011;10708;50.824;4.408;2023-02-15T12:23:30;153.73;;;142.75;;
21099;SDS011;10708;50.824;4.408;2023-02-15T12:28:34;148.90;;;138.00;;
21099;SDS011;10708;50.824;4.408;2023-02-15T12:33:40;146.35;;;135.35;;
21099;SDS011;10708;50.824;4.408;2023-02-15T12:44:15;127.83;;;117.90;;
21099;SDS011;10708;50.824;4.408;2023-02-15T12:49:20;165.90;;;154.27;;
21099;SDS011;10708;50.824;4.408;2023-02-15T12:54:31;182.80;;;170.00;;
21099;SDS011;10708;50.824;4.408;2023-02-15T12:59:36;122.23;;;113.17;;
21099;SDS011;10708;50.824;4.408;2023-02-15T13:04:46;116.47;;;107.63;;
21099;SDS011;10708;50.824;4.408;2023-02-15T13:09:50;126.60;;;116.93;;
21099;SDS011;10708;50.824;4.408;2023-02-15T13:14:53;117.35;;;108.40;;
21099;SDS011;10708;50.824;4.408;2023-02-15T13:20:00;127.43;;;117.93;;
21099;SDS011;10708;50.824;4.408;2023-02-15T13:25:10;126.13;;;116.60;;
21099;SDS011;10708;50.824;4.408;2023-02-15T13:30:19;165.27;;;153.77;;
21099;SDS011;10708;50.824;4.408;2023-02-15T13:35:28;200.97;;;187.53;;
21099;SDS011;10708;50.824;4.408;2023-02-15T13:40:43;207.90;;;194.02;;
21099;SDS011;10708;50.824;4.408;2023-02-15T13:45:56;234.32;;;219.43;;
21099;SDS011;10708;50.824;4.408;2023-02-15T13:51:15;214.80;;;200.27;;
21099;SDS011;10708;50.824;4.408;2023-02-15T13:56:28;256.00;;;239.68;;
21099;SDS011;10708;50.824;4.408;2023-02-15T14:01:44;227.13;;;212.07;;
21099;SDS011;10708;50.824;4.408;2023-02-15T14:12:26;236.75;;;221.15;;
21099;SDS011;10708;50.824;4.408;2023-02-15T14:17:39;253.25;;;236.15;;
21099;SDS011;10708;50.824;4.408;2023-02-15T14:22:50;241.50;;;225.68;;
21099;SDS011;10708;50.824;4.408;2023-02-15T14:27:59;226.02;;;210.43;;
21099;SDS011;10708;50.824;4.408;2023-02-15T14:33:10;253.45;;;236.80;;
21099;SDS011;10708;50.824;4.408;2023-02-15T14:38:37;94.32;;;85.60;;
21099;SDS011;10708;50.824;4.408;2023-02-15T14:43:51;102.45;;;93.05;;
21099;SDS011;10708;50.824;4.408;2023-02-15T14:49:03;90.15;;;81.72;;
21099;SDS011;10708;50.824;4.408;2023-02-15T14:54:52;103.55;;;93.97;;
21099;SDS011;10708;50.824;4.408;2023-02-15T15:00:30;127.10;;;116.43;;
21099;SDS011;10708;50.824;4.408;2023-02-15T15:05:46;215.30;;;199.77;;
21099;SDS011;10708;50.824;4.408;2023-02-15T15:10:52;139.60;;;128.52;;
21099;SDS011;10708;50.824;4.408;2023-02-15T15:15:56;320.88;;;300.17;;
21099;SDS011;10708;50.824;4.408;2023-02-15T15:32:32;161.18;;;148.55;;
21099;SDS011;10708;50.824;4.408;2023-02-15T15:37:47;124.57;;;113.82;;
21099;SDS011;10708;50.824;4.408;2023-02-15T15:49:09;139.65;;;128.10;;
21099;SDS011;10708;50.824;4.408;2023-02-15T15:54:16;150.20;;;137.83;;
21099;SDS011;10708;50.824;4.408;2023-02-15T15:59:20;132.57;;;121.70;;
21099;SDS011;10708;50.824;4.408;2023-02-15T16:04:28;107.78;;;97.82;;
21099;SDS011;10708;50.824;4.408;2023-02-15T16:09:34;91.07;;;82.53;;
21099;SDS011;10708;50.824;4.408;2023-02-15T16:14:37;81.72;;;73.40;;
21099;SDS011;10708;50.824;4.408;2023-02-15T16:19:42;356.77;;;333.88;;
21099;SDS011;10708;50.824;4.408;2023-02-15T16:30:30;342.03;;;320.53;;
21099;SDS011;10708;50.824;4.408;2023-02-15T16:35:35;281.77;;;263.60;;
21099;SDS011;10708;50.824;4.408;2023-02-15T16:40:40;351.35;;;328.63;;
21099;SDS011;10708;50.824;4.408;2023-02-15T16:45:48;360.48;;;337.35;;
21099;SDS011;10708;50.824;4.408;2023-02-15T16:50:54;131.63;;;120.70;;
21099;SDS011;10708;50.824;4.408;2023-02-15T16:55:59;156.67;;;144.43;;
21099;SDS011;10708;50.824;4.408;2023-02-15T17:01:06;261.97;;;243.83;;
21099;SDS011;10708;50.824;4.408;2023-02-15T17:06:19;364.58;;;340.17;;
21099;SDS011;10708;50.824;4.408;2023-02-15T17:11:32;221.88;;;205.60;;
21099;SDS011;10708;50.824;4.408;2023-02-15T17:16:40;259.40;;;241.48;;
21099;SDS011;10708;50.824;4.408;2023-02-15T17:21:52;349.93;;;326.90;;
21099;SDS011;10708;50.824;4.408;2023-02-15T17:26:57;383.02;;;358.35;;
21099;SDS011;10708;50.824;4.408;2023-02-15T17:32:02;628.03;;;584.53;;
21099;SDS011;10708;50.824;4.408;2023-02-15T17:37:10;569.10;;;530.45;;
21099;SDS011;10708;50.824;4.408;2023-02-15T17:42:15;537.47;;;501.83;;
21099;SDS011;10708;50.824;4.408;2023-02-15T17:47:18;560.75;;;523.30;;
21099;SDS011;10708;50.824;4.408;2023-02-15T17:52:24;525.65;;;491.15;;
21099;SDS011;10708;50.824;4.408;2023-02-15T17:57:29;532.58;;;497.27;;
21099;SDS011;10708;50.824;4.408;2023-02-15T18:02:33;539.63;;;504.00;;
21099;SDS011;10708;50.824;4.408;2023-02-15T18:07:55;414.90;;;388.45;;
21099;SDS011;10708;50.824;4.408;2023-02-15T18:13:15;283.25;;;264.85;;
21099;SDS011;10708;50.824;4.408;2023-02-15T18:18:18;282.17;;;264.03;;
21099;SDS011;10708;50.824;4.408;2023-02-15T18:23:23;286.13;;;267.88;;
21099;SDS011;10708;50.824;4.408;2023-02-15T18:28:25;278.83;;;261.02;;
21099;SDS011;10708;50.824;4.408;2023-02-15T18:33:32;228.23;;;213.15;;
21099;SDS011;10708;50.824;4.408;2023-02-15T18:38:38;259.38;;;242.25;;
21099;SDS011;10708;50.824;4.408;2023-02-15T18:43:41;209.93;;;195.07;;
21099;SDS011;10708;50.824;4.408;2023-02-15T18:48:43;214.93;;;199.93;;
21099;SDS011;10708;50.824;4.408;2023-02-15T18:53:51;199.20;;;185.20;;
21099;SDS011;10708;50.824;4.408;2023-02-15T18:58:54;161.00;;;148.73;;
21099;SDS011;10708;50.824;4.408;2023-02-15T19:03:56;117.63;;;107.43;;
21099;SDS011;10708;50.824;4.408;2023-02-15T19:09:00;162.57;;;150.53;;
21099;SDS011;10708;50.824;4.408;2023-02-15T19:14:04;266.85;;;249.73;;
21099;SDS011;10708;50.824;4.408;2023-02-15T19:19:07;312.10;;;292.67;;
21099;SDS011;10708;50.824;4.408;2023-02-15T19:24:12;290.98;;;272.55;;
21099;SDS011;10708;50.824;4.408;2023-02-15T19:29:19;321.33;;;301.77;;
21099;SDS011;10708;50.824;4.408;2023-02-15T19:34:26;277.17;;;259.85;;
21099;SDS011;10708;50.824;4.408;2023-02-15T19:39:31;100.32;;;91.00;;
21099;SDS011;10708;50.824;4.408;2023-02-15T19:44:38;102.78;;;93.88;;
21099;SDS011;10708;50.824;4.408;2023-02-15T19:49:43;120.28;;;110.45;;
21099;SDS011;10708;50.824;4.408;2023-02-15T19:54:47;161.33;;;149.23;;
21099;SDS011;10708;50.824;4.408;2023-02-15T19:59:49;239.27;;;223.25;;
21099;SDS011;10708;50.824;4.408;2023-02-15T20:04:52;223.95;;;209.00;;
21099;SDS011;10708;50.824;4.408;2023-02-15T20:09:56;347.93;;;326.33;;
21099;SDS011;10708;50.824;4.408;2023-02-15T20:14:58;330.97;;;310.07;;
21099;SDS011;10708;50.824;4.408;2023-02-15T20:20:01;347.35;;;325.05;;
21099;SDS011;10708;50.824;4.408;2023-02-15T20:25:05;381.58;;;356.33;;
21099;SDS011;10708;50.824;4.408;2023-02-15T20:30:14;264.05;;;246.20;;
21099;SDS011;10708;50.824;4.408;2023-02-15T20:35:18;331.43;;;309.93;;
21099;SDS011;10708;50.824;4.408;2023-02-15T20:40:26;608.03;;;565.72;;
21099;SDS011;10708;50.824;4.408;2023-02-15T20:45:30;608.33;;;565.22;;
21099;SDS011;10708;50.824;4.408;2023-02-15T20:50:33;275.60;;;257.43;;
21099;SDS011;10708;50.824;4.408;2023-02-15T20:55:38;412.65;;;384.95;;
21099;SDS011;10708;50.824;4.408;2023-02-15T21:00:41;500.95;;;466.92;;
21099;SDS011;10708;50.824;4.408;2023-02-15T21:05:43;585.53;;;544.40;;
21099;SDS011;10708;50.824;4.408;2023-02-15T21:10:50;623.85;;;579.45;;
21099;SDS011;10708;50.824;4.408;2023-02-15T21:15:54;662.20;;;614.50;;
21099;SDS011;10708;50.824;4.408;2023-02-15T21:20:57;684.00;;;634.08;;
21099;SDS011;10708;50.824;4.408;2023-02-15T21:26:02;687.03;;;637.50;;
21099;SDS011;10708;50.824;4.408;2023-02-15T21:31:07;655.03;;;608.23;;
21099;SDS011;10708;50.824;4.408;2023-02-15T21:36:17;640.83;;;595.08;;
21099;SDS011;10708;50.824;4.408;2023-02-15T21:41:23;606.40;;;564.10;;
21099;SDS011;10708;50.824;4.408;2023-02-15T21:46:43;534.60;;;498.65;;
21099;SDS011;10708;50.824;4.408;2023-02-15T21:52:08;540.15;;;504.05;;
21099;SDS011;10708;50.824;4.408;2023-02-15T21:57:16;522.25;;;487.58;;
21099;SDS011;10708;50.824;4.408;2023-02-15T22:02:25;559.42;;;522.20;;
21099;SDS011;10708;50.824;4.408;2023-02-15T22:07:29;532.80;;;497.27;;
21099;SDS011;10708;50.824;4.408;2023-02-15T22:12:33;557.40;;;519.78;;
21099;SDS011;10708;50.824;4.408;2023-02-15T22:17:37;596.05;;;555.60;;
21099;SDS011;10708;50.824;4.408;2023-02-15T22:22:42;616.37;;;573.97;;
21099;SDS011;10708;50.824;4.408;2023-02-15T22:27:46;604.65;;;563.78;;
21099;SDS011;10708;50.824;4.408;2023-02-15T22:32:50;543.60;;;507.73;;
21099;SDS011;10708;50.824;4.408;2023-02-15T22:37:53;403.63;;;377.93;;
21099;SDS011;10708;50.824;4.408;2023-02-15T22:42:58;398.45;;;373.25;;
21099;SDS011;10708;50.824;4.408;2023-02-15T22:48:03;317.37;;;297.33;;
21099;SDS011;10708;50.824;4.408;2023-02-15T22:53:07;282.53;;;264.13;;
21099;SDS011;10708;50.824;4.408;2023-02-15T22:58:14;261.17;;;244.10;;
21099;SDS011;10708;50.824;4.408;2023-02-15T23:03:20;311.95;;;292.17;;
21099;SDS011;10708;50.824;4.408;2023-02-15T23:08:25;335.67;;;314.23;;
21099;SDS011;10708;50.824;4.408;2023-02-15T23:13:30;370.50;;;347.15;;
21099;SDS011;10708;50.824;4.408;2023-02-15T23:18:34;376.58;;;352.58;;
21099;SDS011;10708;50.824;4.408;2023-02-15T23:23:39;366.95;;;343.88;;
21099;SDS011;10708;50.824;4.408;2023-02-15T23:28:44;362.07;;;338.97;;
21099;SDS011;10708;50.824;4.408;2023-02-15T23:33:47;322.98;;;302.23;;
21099;SDS011;10708;50.824;4.408;2023-02-15T23:38:50;329.20;;;308.33;;
21099;SDS011;10708;50.824;4.408;2023-02-15T23:43:55;345.70;;;323.43;;
21099;SDS011;10708;50.824;4.408;2023-02-15T23:49:00;351.65;;;329.17;;
21099;SDS011;10708;50.824;4.408;2023-02-15T23:54:14;347.67;;;325.50;;
21099;SDS011;10708;50.824;4.408;2023-02-15T23:59:20;349.83;;;327.63;;
